createdAt,value
2018-05-09T00:01:42.563Z,46.30
2018-05-09T00:04:11.720Z,46.60
2018-05-09T00:06:41.579Z,46.90
2018-05-09T00:09:10.785Z,46.70
2018-05-09T00:11:39.851Z,46.80
2018-05-09T00:14:08.987Z,46.80
2018-05-09T00:16:38.821Z,46.80
2018-05-09T00:19:08.719Z,46.80
2018-05-09T00:21:37.815Z,46.70
2018-05-09T00:24:06.916Z,47.30
2018-05-09T00:26:36.029Z,47.60
2018-05-09T00:29:05.127Z,47.90
2018-05-09T00:31:34.243Z,47.90
2018-05-09T00:34:03.341Z,48.10
2018-05-09T00:36:32.480Z,47.90
2018-05-09T00:39:01.579Z,48.20
2018-05-09T00:41:30.684Z,48.40
2018-05-09T00:43:59.752Z,48.50
2018-05-09T00:46:28.957Z,48.30
2018-05-09T00:48:58.820Z,49.60
2018-05-09T00:51:27.891Z,48.90
2018-05-09T00:57:05.868Z,48.90
2018-05-09T00:59:35.048Z,49.10
2018-05-09T01:02:04.151Z,49.20
2018-05-09T01:04:33.256Z,49.30
2018-05-09T01:07:02.364Z,49.20
2018-05-09T01:09:31.462Z,49.30
2018-05-09T01:12:00.561Z,49.20
2018-05-09T01:14:29.780Z,49.50
2018-05-09T01:16:58.879Z,49.50
2018-05-09T01:19:27.979Z,49.40
2018-05-09T01:21:57.042Z,49.60
2018-05-09T01:24:26.103Z,49.60
2018-05-09T01:26:55.227Z,49.70
2018-05-09T01:29:24.323Z,50.00
2018-05-09T01:31:53.390Z,50.00
2018-05-09T01:34:23.289Z,50.30
2018-05-09T01:36:52.589Z,50.20
2018-05-09T01:39:21.661Z,50.40
2018-05-09T01:41:50.760Z,50.50
2018-05-09T01:44:20.595Z,50.90
2018-05-09T01:46:50.431Z,50.70
2018-05-09T01:49:19.496Z,50.60
2018-05-09T01:51:48.563Z,50.90
2018-05-09T01:54:17.658Z,50.90
2018-05-09T01:56:46.763Z,50.80
2018-05-09T01:59:15.831Z,50.80
2018-05-09T02:01:44.927Z,50.80
2018-05-09T02:04:14.028Z,50.90
2018-05-09T02:06:43.164Z,50.80
2018-05-09T02:09:12.231Z,50.80
2018-05-09T02:11:41.327Z,51.10
2018-05-09T02:14:10.394Z,51.10
2018-05-09T02:16:39.517Z,51.50
2018-05-09T02:19:08.632Z,51.40
2018-05-09T02:21:37.782Z,51.80
2018-05-09T02:24:06.966Z,51.70
2018-05-09T02:26:35.971Z,51.90
2018-05-09T02:29:05.071Z,52.00
2018-05-09T02:31:34.167Z,52.10
2018-05-09T02:34:03.276Z,52.30
2018-05-09T02:36:32.383Z,52.40
2018-05-09T02:39:01.451Z,52.80
2018-05-09T02:41:30.524Z,52.70
2018-05-09T02:43:59.623Z,52.70
2018-05-09T02:46:28.712Z,52.60
2018-05-09T02:48:57.818Z,52.70
2018-05-09T02:51:26.963Z,53.10
2018-05-09T02:53:56.031Z,53.80
2018-05-09T02:56:25.124Z,53.80
2018-05-09T02:58:54.195Z,53.90
2018-05-09T03:01:23.267Z,54.00
2018-05-09T03:06:27.760Z,54.20
2018-05-09T03:08:57.628Z,54.90
2018-05-09T03:11:27.544Z,54.90
2018-05-09T03:13:57.422Z,54.90
2018-05-09T03:16:26.482Z,54.90
2018-05-09T03:18:56.342Z,55.50
2018-05-09T03:21:25.444Z,55.40
2018-05-09T03:23:54.515Z,55.40
2018-05-09T03:26:25.544Z,55.60
2018-05-09T03:28:54.655Z,55.90
2018-05-09T03:31:23.723Z,56.30
2018-05-09T03:33:53.076Z,56.30
2018-05-09T03:36:22.176Z,56.40
2018-05-09T03:38:51.243Z,56.60
2018-05-09T03:41:21.076Z,56.70
2018-05-09T03:43:50.902Z,56.50
2018-05-09T03:46:20.758Z,56.60
2018-05-09T03:48:49.867Z,56.50
2018-05-09T03:51:18.971Z,56.30
2018-05-09T03:53:48.035Z,56.20
2018-05-09T03:56:17.102Z,56.10
2018-05-09T03:58:46.167Z,56.20
2018-05-09T04:01:15.265Z,56.40
2018-05-09T04:04:02.334Z,56.00
2018-05-09T04:06:49.176Z,55.80
2018-05-09T04:12:40.267Z,56.50
2018-05-09T04:15:09.458Z,56.40
2018-05-09T04:17:38.524Z,56.40
2018-05-09T04:20:07.591Z,56.60
2018-05-09T04:22:36.663Z,56.50
2018-05-09T04:25:06.522Z,57.10
2018-05-09T04:27:35.704Z,57.10
2018-05-09T04:30:04.772Z,57.00
2018-05-09T04:32:33.855Z,57.10
2018-05-09T04:35:02.948Z,57.20
2018-05-09T04:37:32.039Z,57.10
2018-05-09T04:40:01.150Z,57.00
2018-05-09T04:42:31.295Z,57.00
2018-05-09T04:45:00.359Z,56.90
2018-05-09T04:47:30.960Z,56.70
2018-05-09T04:50:00.828Z,56.50
2018-05-09T04:52:29.972Z,56.50
2018-05-09T04:54:59.839Z,56.60
2018-05-09T04:57:28.899Z,56.50
2018-05-09T04:59:57.974Z,56.50
2018-05-09T05:02:27.037Z,56.20
2018-05-09T05:04:56.964Z,55.90
2018-05-09T05:07:26.825Z,55.30
2018-05-09T05:09:55.896Z,55.30
2018-05-09T05:12:25.725Z,55.30
2018-05-09T05:14:55.555Z,55.30
2018-05-09T05:17:25.391Z,54.90
2018-05-09T05:19:55.219Z,54.50
2018-05-09T05:22:25.085Z,54.20
2018-05-09T05:24:54.218Z,54.10
2018-05-09T05:27:23.279Z,54.00
2018-05-09T05:29:52.387Z,54.10
2018-05-09T05:32:22.028Z,54.20
2018-05-09T05:34:51.128Z,53.90
2018-05-09T05:37:20.228Z,53.60
2018-05-09T05:39:49.309Z,53.70
2018-05-09T05:42:18.395Z,53.50
2018-05-09T05:44:47.537Z,52.30
2018-05-09T05:47:17.400Z,52.50
2018-05-09T05:49:46.506Z,52.30
2018-05-09T05:52:15.586Z,52.50
2018-05-09T05:54:44.689Z,52.60
2018-05-09T05:57:13.759Z,52.10
2018-05-09T05:59:42.876Z,51.90
2018-05-09T06:02:11.977Z,51.10
2018-05-09T06:04:41.305Z,51.10
2018-05-09T06:07:10.420Z,51.40
2018-05-09T06:09:39.540Z,51.70
2018-05-09T06:12:08.650Z,50.60
2018-05-09T06:14:37.752Z,50.70
2018-05-09T06:17:06.852Z,50.90
2018-05-09T06:19:35.953Z,50.60
2018-05-09T06:22:05.066Z,50.20
2018-05-09T06:24:34.180Z,50.10
2018-05-09T06:27:03.255Z,49.70
2018-05-09T06:29:33.112Z,50.00
2018-05-09T06:32:02.220Z,49.90
2018-05-09T06:34:31.342Z,49.40
2018-05-09T06:37:00.400Z,48.80
2018-05-09T06:39:30.297Z,47.90
2018-05-09T06:41:59.369Z,47.80
2018-05-09T06:44:28.520Z,48.40
2018-05-09T06:46:57.587Z,48.10
2018-05-09T06:49:26.728Z,47.40
2018-05-09T06:51:55.803Z,46.80
2018-05-09T06:54:24.863Z,46.90
2018-05-09T06:56:53.928Z,46.70
2018-05-09T06:59:22.991Z,47.00
2018-05-09T07:01:52.077Z,47.10
2018-05-09T07:04:21.173Z,46.10
2018-05-09T07:06:50.299Z,46.20
2018-05-09T07:09:19.400Z,45.90
2018-05-09T07:11:48.508Z,45.90
2018-05-09T07:14:17.575Z,45.30
2018-05-09T07:16:47.472Z,45.40
2018-05-09T07:19:16.564Z,45.40
2018-05-09T07:21:45.661Z,45.40
2018-05-09T07:24:14.724Z,45.50
2018-05-09T07:26:43.885Z,45.50
2018-05-09T07:29:12.980Z,45.60
2018-05-09T07:31:42.043Z,45.70
2018-05-09T07:34:11.185Z,45.40
2018-05-09T07:36:41.049Z,45.10
2018-05-09T07:39:10.114Z,45.70
2018-05-09T07:41:39.972Z,44.60
2018-05-09T07:44:09.144Z,44.50
2018-05-09T07:46:38.240Z,43.80
2018-05-09T07:49:07.344Z,44.20
2018-05-09T07:51:36.461Z,43.40
2018-05-09T07:54:05.556Z,44.30
2018-05-09T07:56:34.657Z,43.20
2018-05-09T07:59:03.728Z,43.20
2018-05-09T08:01:33.585Z,43.10
2018-05-09T08:04:02.656Z,43.10
2018-05-09T08:06:32.511Z,42.50
2018-05-09T08:09:01.574Z,42.40
2018-05-09T08:11:30.739Z,42.10
2018-05-09T08:13:59.836Z,41.90
2018-05-09T08:16:28.931Z,41.10
2018-05-09T08:18:58.764Z,40.10
2018-05-09T08:21:28.668Z,39.70
2018-05-09T08:23:57.731Z,39.70
2018-05-09T08:26:26.795Z,40.10
2018-05-09T08:28:56.119Z,40.40
2018-05-09T08:31:25.947Z,39.80
2018-05-09T08:33:55.831Z,40.70
2018-05-09T08:36:24.934Z,40.70
2018-05-09T08:38:54.365Z,39.80
2018-05-09T08:41:23.469Z,39.50
2018-05-09T08:43:52.610Z,38.50
2018-05-09T08:46:21.671Z,38.50
2018-05-09T08:48:50.735Z,38.50
2018-05-09T08:51:19.790Z,38.50
2018-05-09T08:53:48.888Z,38.80
2018-05-09T08:56:17.983Z,38.40
2018-05-09T08:58:47.815Z,38.70
2018-05-09T09:01:16.963Z,38.60
2018-05-09T09:03:46.043Z,37.40
2018-05-09T09:06:15.136Z,38.00
2018-05-09T09:08:45.225Z,37.10
2018-05-09T09:11:14.315Z,37.10
2018-05-09T09:13:43.372Z,36.20
2018-05-09T09:16:12.459Z,36.70
2018-05-09T09:18:41.617Z,36.90
2018-05-09T09:21:10.991Z,36.20
2018-05-09T09:23:40.047Z,36.50
2018-05-09T09:26:09.910Z,34.50
2018-05-09T09:28:39.008Z,34.50
2018-05-09T09:31:08.112Z,34.70
2018-05-09T09:33:37.182Z,34.70
2018-05-09T09:36:06.281Z,34.70
2018-05-09T09:38:35.343Z,35.00
2018-05-09T09:41:04.410Z,34.30
2018-05-09T09:43:33.499Z,33.70
2018-05-09T09:46:02.567Z,33.90
2018-05-09T09:48:31.700Z,32.70
2018-05-09T09:51:00.815Z,31.40
2018-05-09T09:53:29.874Z,30.30
2018-05-09T09:55:59.699Z,30.50
2018-05-09T09:58:28.769Z,30.30
2018-05-09T10:00:57.846Z,30.40
2018-05-09T10:03:26.980Z,30.40
2018-05-09T10:05:56.047Z,30.40
2018-05-09T10:08:25.909Z,30.50
2018-05-09T10:10:55.023Z,30.40
2018-05-09T10:13:24.147Z,30.00
2018-05-09T10:15:53.241Z,30.60
2018-05-09T10:18:22.339Z,29.20
2018-05-09T10:20:51.441Z,29.90
2018-05-09T10:23:20.583Z,29.60
2018-05-09T10:25:50.358Z,29.80
2018-05-09T10:28:20.216Z,29.70
2018-05-09T10:30:49.357Z,29.70
2018-05-09T10:33:18.540Z,28.60
2018-05-09T10:35:47.607Z,29.00
2018-05-09T10:38:16.747Z,29.80
2018-05-09T10:40:45.844Z,29.40
2018-05-09T10:43:15.712Z,29.00
2018-05-09T10:45:44.785Z,28.90
2018-05-09T10:48:14.730Z,28.80
2018-05-09T10:50:43.881Z,28.80
2018-05-09T10:53:12.935Z,28.20
2018-05-09T10:55:42.791Z,28.30
2018-05-09T10:58:11.906Z,28.30
2018-05-09T11:00:40.992Z,28.20
2018-05-09T11:03:10.827Z,28.70
2018-05-09T11:05:40.651Z,27.70
2018-05-09T11:08:10.479Z,28.30
2018-05-09T11:10:40.319Z,28.40
2018-05-09T11:13:09.414Z,28.40
2018-05-09T11:15:39.289Z,28.90
2018-05-09T11:18:08.384Z,28.90
2018-05-09T11:20:37.448Z,29.80
2018-05-09T11:23:06.527Z,29.20
2018-05-09T11:25:35.583Z,29.20
2018-05-09T11:28:05.441Z,29.30
2018-05-09T11:30:34.535Z,29.30
2018-05-09T11:33:03.632Z,29.30
2018-05-09T11:35:33.699Z,28.80
2018-05-09T11:38:02.841Z,28.80
2018-05-09T11:40:31.949Z,27.90
2018-05-09T11:43:01.048Z,28.90
2018-05-09T11:45:30.151Z,28.60
2018-05-09T11:47:59.245Z,29.00
2018-05-09T11:50:28.380Z,29.00
2018-05-09T11:52:57.473Z,29.40
2018-05-09T11:55:26.542Z,29.40
2018-05-09T11:57:56.459Z,29.40
2018-05-09T12:00:26.344Z,29.90
2018-05-09T12:02:55.449Z,29.90
2018-05-09T12:05:24.515Z,30.00
2018-05-09T12:07:54.428Z,29.10
2018-05-09T12:10:23.593Z,29.00
2018-05-09T12:12:52.586Z,29.00
2018-05-09T12:15:21.724Z,29.60
2018-05-09T12:17:50.787Z,28.50
2018-05-09T12:20:20.683Z,27.80
2018-05-09T12:22:49.743Z,27.80
2018-05-09T12:25:18.837Z,27.50
2018-05-09T12:27:48.675Z,27.50
2018-05-09T12:30:18.585Z,28.00
2018-05-09T12:32:47.656Z,28.00
2018-05-09T12:35:16.752Z,27.70
2018-05-09T12:37:45.871Z,27.80
2018-05-09T12:40:14.984Z,27.30
2018-05-09T12:42:44.060Z,26.90
2018-05-09T12:45:13.975Z,26.00
2018-05-09T12:47:43.798Z,26.40
2018-05-09T12:50:12.992Z,26.40
2018-05-09T12:52:42.063Z,25.30
2018-05-09T12:55:11.415Z,25.80
2018-05-09T12:57:40.556Z,25.60
2018-05-09T13:00:10.425Z,25.90
2018-05-09T13:02:39.491Z,26.40
2018-05-09T13:05:09.344Z,26.10
2018-05-09T13:07:38.436Z,26.10
2018-05-09T13:10:08.296Z,26.80
2018-05-09T13:12:37.396Z,26.70
2018-05-09T13:15:06.493Z,27.00
2018-05-09T13:17:35.597Z,27.40
2018-05-09T13:20:05.430Z,27.40
2018-05-09T13:22:35.292Z,27.80
2018-05-09T13:25:04.393Z,27.80
2018-05-09T13:27:33.459Z,28.40
2018-05-09T13:30:02.556Z,27.90
2018-05-09T13:32:31.700Z,27.50
2018-05-09T13:35:00.767Z,27.20
2018-05-09T13:37:29.832Z,27.20
2018-05-09T13:39:58.961Z,27.30
2018-05-09T13:42:28.781Z,27.10
2018-05-09T13:44:57.858Z,27.10
2018-05-09T13:47:27.715Z,26.90
2018-05-09T13:49:56.795Z,26.90
2018-05-09T13:52:26.676Z,27.50
2018-05-09T13:54:55.738Z,27.40
2018-05-09T13:57:25.686Z,26.90
2018-05-09T13:59:55.379Z,26.90
2018-05-09T14:02:24.447Z,27.40
2018-05-09T14:04:53.604Z,26.70
2018-05-09T14:07:23.443Z,27.00
2018-05-09T14:09:53.531Z,26.90
2018-05-09T14:12:22.555Z,26.90
2018-05-09T14:14:51.648Z,26.90
2018-05-09T14:17:20.805Z,27.50
2018-05-09T14:19:50.001Z,26.90
2018-05-09T14:22:19.864Z,27.20
2018-05-09T14:24:48.931Z,27.10
2018-05-09T14:27:18.038Z,27.00
2018-05-09T14:29:47.123Z,26.70
2018-05-09T14:32:16.288Z,27.10
2018-05-09T14:34:45.307Z,27.20
2018-05-09T14:37:14.392Z,26.50
2018-05-09T14:39:43.483Z,26.40
2018-05-09T14:42:12.655Z,27.40
2018-05-09T14:44:41.722Z,27.20
2018-05-09T14:47:10.863Z,27.20
2018-05-09T14:49:39.971Z,27.10
2018-05-09T14:52:09.068Z,26.70
2018-05-09T14:54:38.942Z,26.60
2018-05-09T14:57:08.000Z,26.60
2018-05-09T14:59:37.831Z,26.30
2018-05-09T15:02:07.659Z,26.90
2018-05-09T15:04:37.547Z,27.60
2018-05-09T15:07:06.610Z,28.00
2018-05-09T15:09:36.436Z,26.90
2018-05-09T15:12:06.325Z,27.10
2018-05-09T15:14:35.429Z,27.00
2018-05-09T15:17:04.495Z,27.80
2018-05-09T15:19:33.591Z,27.80
2018-05-09T15:22:03.710Z,28.30
2018-05-09T15:24:32.804Z,28.30
2018-05-09T15:27:01.908Z,28.60
2018-05-09T15:29:31.023Z,28.60
2018-05-09T15:32:00.121Z,29.10
2018-05-09T15:34:29.192Z,29.20
2018-05-09T15:36:58.283Z,29.60
2018-05-09T15:39:28.144Z,29.00
2018-05-09T15:41:57.230Z,29.00
2018-05-09T15:44:27.089Z,28.60
2018-05-09T15:46:56.295Z,28.60
2018-05-09T15:49:25.359Z,28.20
2018-05-09T15:51:54.423Z,28.30
2018-05-09T15:54:23.487Z,28.30
2018-05-09T15:56:53.343Z,27.90
2018-05-09T15:59:22.464Z,27.90
2018-05-09T16:01:51.526Z,27.90
2018-05-09T16:04:20.625Z,28.20
2018-05-09T16:06:49.731Z,28.20
2018-05-09T16:09:18.803Z,28.80
2018-05-09T16:11:47.867Z,29.10
2018-05-09T16:14:16.936Z,29.10
2018-05-09T16:16:46.036Z,29.20
2018-05-09T16:19:15.220Z,29.60
2018-05-09T16:21:45.060Z,29.50
2018-05-09T16:24:15.036Z,29.80
2018-05-09T16:26:44.103Z,29.80
2018-05-09T16:29:13.952Z,29.70
2018-05-09T16:31:43.047Z,29.70
2018-05-09T16:34:12.148Z,30.00
2018-05-09T16:36:42.034Z,29.70
2018-05-09T16:39:11.099Z,29.70
2018-05-09T16:41:40.249Z,29.70
2018-05-09T16:44:09.384Z,29.80
2018-05-09T16:46:39.349Z,30.10
2018-05-09T16:49:08.401Z,30.10
2018-05-09T16:51:37.511Z,30.60
2018-05-09T16:54:06.610Z,30.50
2018-05-09T16:56:35.672Z,29.90
2018-05-09T16:59:05.540Z,29.80
2018-05-09T17:01:34.738Z,29.80
2018-05-09T17:04:03.832Z,29.70
2018-05-09T17:06:33.654Z,30.10
2018-05-09T17:09:03.585Z,31.50
2018-05-09T17:11:33.420Z,31.10
2018-05-09T17:14:03.393Z,31.30
2018-05-09T17:16:32.463Z,31.30
2018-05-09T17:19:02.319Z,31.30
2018-05-09T17:21:49.080Z,31.30
2018-05-09T17:24:18.187Z,31.20
2018-05-09T17:26:47.296Z,31.30
2018-05-09T17:29:16.368Z,31.20
2018-05-09T17:31:45.459Z,31.20
2018-05-09T17:34:15.325Z,31.30
2018-05-09T17:36:44.470Z,31.30
2018-05-09T17:39:13.538Z,31.70
2018-05-09T17:41:42.629Z,32.80
2018-05-09T17:44:11.813Z,34.50
2018-05-09T17:46:40.909Z,36.70
2018-05-09T17:49:09.979Z,37.40
2018-05-09T17:51:39.079Z,44.10
2018-05-09T17:54:08.181Z,46.80
2018-05-09T17:56:37.276Z,46.50
2018-05-09T17:59:07.180Z,50.80
2018-05-09T18:01:36.247Z,50.70
2018-05-09T18:04:05.414Z,53.80
2018-05-09T18:06:34.444Z,55.30
2018-05-09T18:09:04.313Z,54.00
2018-05-09T18:11:33.378Z,54.00
2018-05-09T18:14:03.203Z,58.30
2018-05-09T18:16:33.064Z,59.40
2018-05-09T18:19:02.160Z,59.40
2018-05-09T18:21:31.256Z,60.30
2018-05-09T18:24:01.121Z,61.10
2018-05-09T18:26:30.217Z,61.00
2018-05-09T18:28:59.316Z,62.50
2018-05-09T18:31:28.393Z,62.90
2018-05-09T18:33:57.509Z,63.60
2018-05-09T18:36:26.580Z,64.70
2018-05-09T18:38:55.755Z,64.20
2018-05-09T18:41:25.608Z,65.70
2018-05-09T18:43:54.768Z,65.70
2018-05-09T18:46:23.886Z,67.40
2018-05-09T18:48:53.732Z,67.00
2018-05-09T18:51:23.588Z,67.60
2018-05-09T18:53:52.650Z,67.50
2018-05-09T18:56:21.828Z,67.30
2018-05-09T18:58:50.901Z,67.60
2018-05-09T19:01:19.959Z,68.00
2018-05-09T19:03:49.040Z,68.90
2018-05-09T19:06:18.167Z,69.60
2018-05-09T19:08:47.349Z,70.70
2018-05-09T19:11:16.417Z,71.40
2018-05-09T19:13:45.559Z,72.20
2018-05-09T19:16:14.694Z,72.30
2018-05-09T19:18:43.823Z,73.10
2018-05-09T19:21:12.896Z,73.10
2018-05-09T19:23:41.959Z,73.50
2018-05-09T19:26:11.057Z,74.10
2018-05-09T19:28:40.251Z,74.10
2018-05-09T19:31:10.039Z,76.30
2018-05-09T19:33:39.867Z,76.60
2018-05-09T19:36:09.696Z,76.50
2018-05-09T19:38:39.633Z,75.80
2018-05-09T19:41:08.718Z,75.70
2018-05-09T19:43:37.828Z,75.60
2018-05-09T19:46:06.934Z,74.40
2018-05-09T19:48:36.032Z,74.00
2018-05-09T19:51:05.133Z,75.00
2018-05-09T19:53:34.240Z,73.90
2018-05-09T19:56:03.337Z,74.20
2018-05-09T19:58:32.416Z,74.70
2018-05-09T20:01:01.522Z,75.60
2018-05-09T20:03:30.619Z,76.30
2018-05-09T20:06:00.492Z,76.00
2018-05-09T20:08:29.670Z,76.00
2018-05-09T20:10:58.839Z,76.00
2018-05-09T20:13:27.928Z,76.70
2018-05-09T20:15:57.024Z,76.50
2018-05-09T20:18:26.120Z,77.00
2018-05-09T20:20:55.975Z,77.70
2018-05-09T20:23:25.072Z,77.70
2018-05-09T20:25:54.176Z,78.00
2018-05-09T20:28:23.243Z,77.40
2018-05-09T20:30:58.012Z,77.60
2018-05-09T20:33:27.904Z,77.60
2018-05-09T20:35:57.773Z,78.60
2018-05-09T20:38:27.624Z,77.20
2018-05-09T20:40:56.721Z,77.10
2018-05-09T20:43:25.825Z,78.00
2018-05-09T20:45:54.929Z,74.80
2018-05-09T20:48:24.851Z,69.90
2018-05-09T20:50:54.707Z,69.60
2018-05-09T20:53:23.813Z,69.80
2018-05-09T20:55:52.875Z,68.80
2018-05-09T20:58:21.956Z,68.40
2018-05-09T21:00:51.076Z,69.60
2018-05-09T21:03:20.229Z,70.80
2018-05-09T21:05:50.168Z,68.90
2018-05-09T21:08:19.999Z,68.20
2018-05-09T21:10:49.831Z,69.40
2018-05-09T21:13:19.689Z,66.70
2018-05-09T21:15:48.751Z,66.60
2018-05-09T21:18:17.872Z,68.20
2018-05-09T21:20:47.790Z,68.10
2018-05-09T21:23:16.889Z,68.10
2018-05-09T21:25:46.036Z,68.40
2018-05-09T21:28:15.136Z,69.50
2018-05-09T21:30:44.996Z,69.00
2018-05-09T21:33:14.101Z,69.10
2018-05-09T21:35:43.259Z,69.40
2018-05-09T21:38:12.375Z,70.10
2018-05-09T21:40:41.491Z,70.30
2018-05-09T21:43:11.393Z,70.50
2018-05-09T21:45:40.463Z,70.40
2018-05-09T21:48:09.518Z,71.90
2018-05-09T21:50:39.400Z,72.60
2018-05-09T21:53:08.501Z,72.70
2018-05-09T21:55:38.359Z,72.00
2018-05-09T21:58:07.520Z,72.00
2018-05-09T22:00:36.624Z,71.40
2018-05-09T22:03:05.768Z,72.10
2018-05-09T22:05:34.866Z,71.50
2018-05-09T22:08:04.700Z,71.70
2018-05-09T22:10:34.522Z,72.50
2018-05-09T22:13:04.480Z,73.10
2018-05-09T22:15:33.572Z,72.40
2018-05-09T22:18:02.676Z,72.40
2018-05-09T22:20:32.536Z,72.60
2018-05-09T22:23:01.631Z,72.60
2018-05-09T22:25:30.736Z,73.00
2018-05-09T22:27:59.808Z,72.90
2018-05-09T22:30:28.899Z,73.30
2018-05-09T22:32:57.997Z,72.70
2018-05-09T22:35:27.153Z,73.50
2018-05-09T22:37:56.252Z,74.10
2018-05-09T22:40:25.356Z,74.70
2018-05-09T22:42:54.455Z,75.20
2018-05-09T22:45:23.524Z,74.40
2018-05-09T22:47:52.772Z,73.50
2018-05-09T22:50:21.993Z,73.60
2018-05-09T22:52:51.065Z,72.70
2018-05-09T22:55:20.127Z,72.10
2018-05-09T22:57:49.187Z,71.30
2018-05-09T23:00:18.983Z,70.40
2018-05-09T23:02:48.839Z,70.00
2018-05-09T23:05:17.899Z,69.90
2018-05-09T23:07:47.079Z,69.70
2018-05-09T23:10:16.215Z,69.00
2018-05-09T23:12:45.230Z,68.20
2018-05-09T23:15:14.535Z,68.60
2018-05-09T23:17:43.591Z,69.20
2018-05-09T23:20:13.422Z,68.60
2018-05-09T23:22:42.482Z,68.50
2018-05-09T23:25:11.551Z,68.80
2018-05-09T23:27:40.611Z,69.00
2018-05-09T23:30:09.704Z,68.80
2018-05-09T23:32:38.821Z,69.50
2018-05-09T23:35:07.922Z,70.20
2018-05-09T23:37:37.025Z,70.90
2018-05-09T23:40:06.663Z,70.70
2018-05-09T23:42:35.757Z,70.50
2018-05-09T23:45:04.880Z,71.00
2018-05-09T23:47:33.981Z,71.30
2018-05-09T23:50:03.096Z,71.70
2018-05-09T23:52:32.260Z,72.00
2018-05-09T23:55:02.130Z,71.90
2018-05-09T23:57:31.258Z,71.80
